createdAt,value
2023-05-14T00:01:17.485Z,15.57
2023-05-14T00:03:45.607Z,15.44
2023-05-14T00:06:13.742Z,15.35
2023-05-14T00:08:41.288Z,15.30
2023-05-14T00:11:11.688Z,15.29
2023-05-14T00:13:38.886Z,15.24
2023-05-14T00:16:06.360Z,15.29
2023-05-14T00:18:33.666Z,15.26
2023-05-14T00:21:00.858Z,15.32
2023-05-14T00:23:28.545Z,15.25
2023-05-14T00:25:56.686Z,15.25
2023-05-14T00:28:24.336Z,15.28
2023-05-14T00:30:52.240Z,15.19
2023-05-14T00:33:19.764Z,15.24
2023-05-14T00:35:47.259Z,15.05
2023-05-14T00:38:23.448Z,15.05
2023-05-14T00:40:51.957Z,14.99
2023-05-14T00:43:23.411Z,14.97
2023-05-14T00:45:53.307Z,14.93
2023-05-14T00:48:21.917Z,14.89
2023-05-14T00:50:51.156Z,14.86
2023-05-14T00:53:20.733Z,14.86
2023-05-14T00:55:50.430Z,14.71
2023-05-14T00:58:19.383Z,14.67
2023-05-14T01:00:46.643Z,14.54
2023-05-14T01:03:14.607Z,14.50
2023-05-14T01:06:01.119Z,14.46
2023-05-14T01:09:14.554Z,14.42
2023-05-14T01:12:12.543Z,14.39
2023-05-14T01:15:11.585Z,14.23
2023-05-14T01:17:47.205Z,14.18
2023-05-14T01:20:15.501Z,14.10
2023-05-14T01:22:42.694Z,14.06
2023-05-14T01:25:10.511Z,13.96
2023-05-14T01:28:17.957Z,13.93
2023-05-14T01:31:14.133Z,13.86
2023-05-14T01:33:44.547Z,13.84
2023-05-14T01:36:12.692Z,13.76
2023-05-14T01:38:45.479Z,13.63
2023-05-14T01:41:14.522Z,13.47
2023-05-14T01:43:42.426Z,13.54
2023-05-14T01:46:09.797Z,13.53
2023-05-14T01:48:37.852Z,13.49
2023-05-14T01:51:05.054Z,13.46
2023-05-14T01:53:34.798Z,13.48
2023-05-14T01:56:02.455Z,13.51
2023-05-14T01:58:29.584Z,13.46
2023-05-14T02:00:56.786Z,13.46
2023-05-14T02:03:24.322Z,13.42
2023-05-14T02:05:52.340Z,13.46
2023-05-14T02:08:19.800Z,13.46
2023-05-14T02:10:47.002Z,13.48
2023-05-14T02:13:15.121Z,13.47
2023-05-14T02:15:42.401Z,13.47
2023-05-14T02:18:09.637Z,13.30
2023-05-14T02:20:36.831Z,13.16
2023-05-14T02:23:04.072Z,12.96
2023-05-14T02:25:31.562Z,13.16
2023-05-14T02:27:58.833Z,13.24
2023-05-14T02:30:26.111Z,13.33
2023-05-14T02:32:53.512Z,13.15
2023-05-14T02:35:21.398Z,13.07
2023-05-14T02:37:48.933Z,13.20
2023-05-14T02:40:16.241Z,13.35
2023-05-14T02:42:43.475Z,13.36
2023-05-14T02:45:11.048Z,13.38
2023-05-14T02:47:38.455Z,13.39
2023-05-14T02:50:06.906Z,13.48
2023-05-14T02:52:34.231Z,13.54
2023-05-14T02:55:02.319Z,13.66
2023-05-14T02:57:29.519Z,13.68
2023-05-14T02:59:56.681Z,13.66
2023-05-14T03:02:24.368Z,13.79
2023-05-14T03:04:52.098Z,13.88
2023-05-14T03:07:19.436Z,13.77
2023-05-14T03:09:46.644Z,13.82
2023-05-14T03:12:14.415Z,13.82
2023-05-14T03:14:41.570Z,13.81
2023-05-14T03:17:08.855Z,13.86
2023-05-14T03:19:36.142Z,13.95
2023-05-14T03:22:03.563Z,14.04
2023-05-14T03:24:31.526Z,14.05
2023-05-14T03:26:58.767Z,13.99
2023-05-14T03:29:25.994Z,13.87
2023-05-14T03:31:54.317Z,13.91
2023-05-14T03:34:21.497Z,13.81
2023-05-14T03:36:48.748Z,13.84
2023-05-14T03:39:19.623Z,13.78
2023-05-14T03:41:48.097Z,13.78
2023-05-14T03:44:15.556Z,13.72
2023-05-14T03:46:42.781Z,13.70
2023-05-14T03:49:10.857Z,13.71
2023-05-14T03:51:38.072Z,13.73
2023-05-14T03:54:06.732Z,13.72
2023-05-14T03:56:34.083Z,13.72
2023-05-14T03:59:01.432Z,13.83
2023-05-14T04:01:28.831Z,13.88
2023-05-14T04:03:58.936Z,13.85
2023-05-14T04:06:27.531Z,13.73
2023-05-14T04:08:55.495Z,13.74
2023-05-14T04:11:23.277Z,13.84
2023-05-14T04:13:50.533Z,13.94
2023-05-14T04:16:17.892Z,13.91
2023-05-14T04:18:45.112Z,13.73
2023-05-14T04:21:12.648Z,13.73
2023-05-14T04:23:40.369Z,13.66
2023-05-14T04:26:07.854Z,13.67
2023-05-14T04:28:35.731Z,13.62
2023-05-14T04:31:03.880Z,13.59
2023-05-14T04:33:31.246Z,13.63
2023-05-14T04:35:58.536Z,13.70
2023-05-14T04:38:29.465Z,13.69
2023-05-14T04:40:56.966Z,13.69
2023-05-14T04:43:24.378Z,13.60
2023-05-14T04:45:52.552Z,13.65
2023-05-14T04:48:19.981Z,13.71
2023-05-14T04:50:47.187Z,13.77
2023-05-14T04:53:14.326Z,13.87
2023-05-14T04:55:41.612Z,13.89
2023-05-14T04:58:08.853Z,13.84
2023-05-14T05:00:36.026Z,13.79
2023-05-14T05:03:04.074Z,13.69
2023-05-14T05:05:31.824Z,13.73
2023-05-14T05:07:59.231Z,13.57
2023-05-14T05:10:26.798Z,13.69
2023-05-14T05:12:54.167Z,13.79
2023-05-14T05:15:21.677Z,13.84
2023-05-14T05:17:49.465Z,13.78
2023-05-14T05:20:16.977Z,13.75
2023-05-14T05:22:44.684Z,13.80
2023-05-14T05:25:12.930Z,13.92
2023-05-14T05:27:40.930Z,14.05
2023-05-14T05:30:09.499Z,14.15
2023-05-14T05:32:37.304Z,14.20
2023-05-14T05:35:05.171Z,14.15
2023-05-14T05:37:32.417Z,13.97
2023-05-14T05:40:00.083Z,14.08
2023-05-14T05:42:27.391Z,13.94
2023-05-14T05:44:54.808Z,13.87
2023-05-14T05:47:22.188Z,13.83
2023-05-14T05:49:49.716Z,14.00
2023-05-14T05:52:16.927Z,14.14
2023-05-14T05:54:44.213Z,14.09
2023-05-14T05:57:11.376Z,13.93
2023-05-14T05:59:38.705Z,13.89
2023-05-14T06:02:07.030Z,13.63
2023-05-14T06:04:35.135Z,13.70
2023-05-14T06:07:02.659Z,13.78
2023-05-14T06:09:30.659Z,13.95
2023-05-14T06:11:58.814Z,14.02
2023-05-14T06:14:26.212Z,13.86
2023-05-14T06:16:53.668Z,13.91
2023-05-14T06:19:23.258Z,14.00
2023-05-14T06:21:51.025Z,14.07
2023-05-14T06:24:20.192Z,14.07
2023-05-14T06:26:49.365Z,14.11
2023-05-14T06:29:17.389Z,14.20
2023-05-14T06:31:44.980Z,14.24
2023-05-14T06:34:12.469Z,14.43
2023-05-14T06:36:41.886Z,14.47
2023-05-14T06:39:08.975Z,14.55
2023-05-14T06:41:38.832Z,14.83
2023-05-14T06:44:06.592Z,14.95
2023-05-14T06:46:33.796Z,15.18
2023-05-14T06:49:00.927Z,14.95
2023-05-14T06:51:30.675Z,14.82
2023-05-14T06:53:58.075Z,14.90
2023-05-14T06:56:25.255Z,14.89
2023-05-14T06:58:52.390Z,15.40
2023-05-14T07:01:19.894Z,15.88
2023-05-14T07:03:49.066Z,15.91
2023-05-14T07:06:16.263Z,16.22
2023-05-14T07:08:47.663Z,16.28
2023-05-14T07:11:15.986Z,16.46
2023-05-14T07:13:43.331Z,16.37
2023-05-14T07:16:10.500Z,16.27
2023-05-14T07:18:38.013Z,16.44
2023-05-14T07:21:06.677Z,16.47
2023-05-14T07:23:36.774Z,16.07
2023-05-14T07:26:06.675Z,16.17
2023-05-14T07:28:35.596Z,16.42
2023-05-14T07:31:08.811Z,16.22
2023-05-14T07:33:36.906Z,15.88
2023-05-14T07:36:05.289Z,15.71
2023-05-14T07:38:33.181Z,16.06
2023-05-14T07:41:00.558Z,16.15
2023-05-14T07:43:27.860Z,15.80
2023-05-14T07:45:55.892Z,16.05
2023-05-14T07:48:23.264Z,16.27
2023-05-14T07:50:51.952Z,16.75
2023-05-14T07:53:19.224Z,16.62
2023-05-14T07:55:48.343Z,16.11
2023-05-14T07:58:16.205Z,16.05
2023-05-14T08:00:43.321Z,16.26
2023-05-14T08:03:11.012Z,16.29
2023-05-14T08:05:38.776Z,16.58
2023-05-14T08:08:06.749Z,16.63
2023-05-14T08:10:34.522Z,17.07
2023-05-14T08:13:01.948Z,17.20
2023-05-14T08:15:32.296Z,17.06
2023-05-14T08:18:03.426Z,16.87
2023-05-14T08:20:38.109Z,17.20
2023-05-14T08:23:05.489Z,17.16
2023-05-14T08:25:33.481Z,17.21
2023-05-14T08:28:01.729Z,17.38
2023-05-14T08:30:29.253Z,17.46
2023-05-14T08:32:58.262Z,17.50
2023-05-14T08:35:25.887Z,17.34
2023-05-14T08:37:53.202Z,17.90
2023-05-14T08:40:20.674Z,18.12
2023-05-14T08:42:51.882Z,18.13
2023-05-14T08:45:22.123Z,18.49
2023-05-14T08:47:51.688Z,18.21
2023-05-14T08:50:23.673Z,18.10
2023-05-14T08:52:53.000Z,17.99
2023-05-14T08:55:20.178Z,18.48
2023-05-14T08:57:47.440Z,17.99
2023-05-14T09:00:20.421Z,18.04
2023-05-14T09:02:49.352Z,18.09
2023-05-14T09:05:19.194Z,17.13
2023-05-14T09:07:47.145Z,17.70
2023-05-14T09:10:18.804Z,17.59
2023-05-14T09:14:29.191Z,18.18
2023-05-14T09:16:57.020Z,18.50
2023-05-14T09:19:24.826Z,18.90
2023-05-14T09:21:52.115Z,19.44
2023-05-14T09:24:26.148Z,19.25
2023-05-14T09:26:57.816Z,19.65
2023-05-14T09:29:28.861Z,18.87
2023-05-14T09:31:59.089Z,19.24
2023-05-14T09:34:30.652Z,19.39
2023-05-14T09:37:08.621Z,19.94
2023-05-14T09:39:38.239Z,19.88
2023-05-14T09:42:06.388Z,20.24
2023-05-14T09:44:36.271Z,20.35
2023-05-14T09:47:04.292Z,20.21
2023-05-14T09:49:31.627Z,20.66
2023-05-14T09:51:59.180Z,20.36
2023-05-14T09:54:27.572Z,19.83
2023-05-14T09:56:55.902Z,20.55
2023-05-14T09:59:23.605Z,20.69
2023-05-14T10:01:52.621Z,20.76
2023-05-14T10:04:22.995Z,20.59
2023-05-14T10:06:53.308Z,19.20
2023-05-14T10:09:26.495Z,19.79
2023-05-14T10:12:01.260Z,20.06
2023-05-14T10:14:49.557Z,20.46
2023-05-14T10:17:21.696Z,20.72
2023-05-14T10:19:57.326Z,20.81
2023-05-14T10:22:34.970Z,21.28
2023-05-14T10:25:05.084Z,21.64
2023-05-14T10:27:33.294Z,21.61
2023-05-14T10:30:06.076Z,21.39
2023-05-14T10:32:33.879Z,21.48
2023-05-14T10:35:02.280Z,21.91
2023-05-14T10:37:34.839Z,22.07
2023-05-14T10:40:07.120Z,21.59
2023-05-14T10:42:43.357Z,21.64
2023-05-14T10:45:16.482Z,21.80
2023-05-14T10:47:47.271Z,22.65
2023-05-14T10:50:18.636Z,23.01
2023-05-14T10:52:49.452Z,23.32
2023-05-14T10:55:17.893Z,23.15
2023-05-14T10:57:47.365Z,23.40
2023-05-14T11:00:25.997Z,23.71
2023-05-14T11:02:57.569Z,24.00
2023-05-14T11:05:27.455Z,24.36
2023-05-14T11:07:57.752Z,24.25
2023-05-14T11:10:35.386Z,24.53
2023-05-14T11:13:03.459Z,24.33
2023-05-14T11:15:32.094Z,24.39
2023-05-14T11:17:59.868Z,24.72
2023-05-14T11:20:27.791Z,24.43
2023-05-14T11:22:55.762Z,23.91
2023-05-14T11:25:29.224Z,24.18
2023-05-14T11:27:58.905Z,24.00
2023-05-14T11:30:29.342Z,24.24
2023-05-14T11:32:57.914Z,24.66
2023-05-14T11:35:27.272Z,24.91
2023-05-14T11:37:54.889Z,25.23
2023-05-14T11:40:22.770Z,25.56
2023-05-14T11:42:53.805Z,25.84
2023-05-14T11:45:30.126Z,26.06
2023-05-14T11:47:58.139Z,26.17
2023-05-14T11:50:26.320Z,27.11
2023-05-14T11:52:57.766Z,27.77
2023-05-14T11:55:25.663Z,27.65
2023-05-14T11:57:53.873Z,27.62
2023-05-14T12:00:23.063Z,27.96
2023-05-14T12:02:51.616Z,28.53
2023-05-14T12:05:19.897Z,29.40
2023-05-14T12:07:48.385Z,30.37
2023-05-14T12:10:17.853Z,30.04
2023-05-14T12:12:49.077Z,29.61
2023-05-14T12:15:17.414Z,29.28
2023-05-14T12:18:48.676Z,29.44
2023-05-14T12:22:14.010Z,28.78
2023-05-14T12:25:38.551Z,27.82
2023-05-14T12:29:03.629Z,27.62
2023-05-14T12:32:28.119Z,27.97
2023-05-14T12:34:55.818Z,28.87
2023-05-14T12:38:20.141Z,28.84
2023-05-14T12:40:47.995Z,27.99
2023-05-14T12:44:12.277Z,27.26
2023-05-14T12:46:40.044Z,26.70
2023-05-14T12:49:08.069Z,25.84
2023-05-14T12:55:58.768Z,25.36
2023-05-14T12:58:26.514Z,25.47
2023-05-14T13:00:54.185Z,27.71
2023-05-14T13:04:18.483Z,29.96
2023-05-14T13:06:46.148Z,32.13
2023-05-14T13:09:13.916Z,32.46
2023-05-14T13:11:41.653Z,32.78
2023-05-14T13:15:02.905Z,31.48
2023-05-14T13:17:32.912Z,30.56
2023-05-14T13:20:00.731Z,29.28
2023-05-14T13:22:28.821Z,28.02
2023-05-14T13:24:57.753Z,27.42
2023-05-14T13:27:26.084Z,27.16
2023-05-14T13:29:54.228Z,27.03
2023-05-14T13:32:22.083Z,26.86
2023-05-14T13:34:49.688Z,26.88
2023-05-14T13:37:17.539Z,27.55
2023-05-14T13:39:45.480Z,29.99
2023-05-14T13:42:13.390Z,32.27
2023-05-14T13:44:41.088Z,33.79
2023-05-14T13:47:08.790Z,35.52
2023-05-14T13:49:36.505Z,36.83
2023-05-14T13:52:04.493Z,37.68
2023-05-14T13:54:32.154Z,37.70
2023-05-14T13:56:59.855Z,38.15
2023-05-14T13:59:27.938Z,38.22
2023-05-14T14:01:55.669Z,38.58
2023-05-14T14:04:25.642Z,38.45
2023-05-14T14:06:53.246Z,37.57
2023-05-14T14:09:21.259Z,37.60
2023-05-14T14:11:49.547Z,38.29
2023-05-14T14:14:17.897Z,37.47
2023-05-14T14:16:45.525Z,37.55
2023-05-14T14:19:13.745Z,38.77
2023-05-14T14:21:46.874Z,39.03
2023-05-14T14:24:14.611Z,38.03
2023-05-14T14:26:42.666Z,35.27
2023-05-14T14:29:10.542Z,33.13
2023-05-14T14:31:38.765Z,31.27
2023-05-14T14:34:06.445Z,30.16
2023-05-14T14:36:34.037Z,29.47
2023-05-14T14:39:06.043Z,28.82
2023-05-14T14:41:33.813Z,28.25
2023-05-14T14:44:02.800Z,26.93
2023-05-14T14:46:30.499Z,27.52
2023-05-14T14:48:58.099Z,28.54
2023-05-14T14:51:26.115Z,28.22
2023-05-14T14:53:53.767Z,27.83
2023-05-14T14:56:22.040Z,27.05
2023-05-14T14:58:49.634Z,26.88
2023-05-14T15:01:17.373Z,26.63
2023-05-14T15:03:45.658Z,26.23
2023-05-14T15:06:13.338Z,26.81
2023-05-14T15:08:41.558Z,28.70
2023-05-14T15:11:09.440Z,29.91
2023-05-14T15:13:37.200Z,29.30
2023-05-14T15:16:04.925Z,28.64
2023-05-14T15:18:32.655Z,27.79
2023-05-14T15:21:00.423Z,26.98
2023-05-14T15:23:28.084Z,26.28
2023-05-14T15:25:55.887Z,26.21
2023-05-14T15:28:23.428Z,25.67
2023-05-14T15:30:51.132Z,25.53
2023-05-14T15:33:19.350Z,25.18
2023-05-14T15:35:47.258Z,25.31
2023-05-14T15:38:14.960Z,27.34
2023-05-14T15:40:42.538Z,27.41
2023-05-14T15:43:10.120Z,28.14
2023-05-14T15:45:37.793Z,27.41
2023-05-14T15:48:05.803Z,26.53
2023-05-14T15:50:33.464Z,25.98
2023-05-14T15:53:03.094Z,25.13
2023-05-14T15:55:30.760Z,24.96
2023-05-14T15:57:58.424Z,24.90
2023-05-14T16:00:26.309Z,24.77
2023-05-14T16:02:54.172Z,24.65
2023-05-14T16:05:21.997Z,24.52
2023-05-14T16:07:49.748Z,24.30
2023-05-14T16:10:21.659Z,24.22
2023-05-14T16:12:49.554Z,24.00
2023-05-14T16:15:17.376Z,23.97
2023-05-14T16:17:45.024Z,24.02
2023-05-14T16:20:13.009Z,24.01
2023-05-14T16:22:40.704Z,23.85
2023-05-14T16:25:08.790Z,23.98
2023-05-14T16:27:36.803Z,24.10
2023-05-14T16:30:05.657Z,24.31
2023-05-14T16:32:33.808Z,24.47
2023-05-14T16:35:02.701Z,24.54
2023-05-14T16:37:32.051Z,24.38
2023-05-14T16:39:59.653Z,24.04
2023-05-14T16:42:27.473Z,23.84
2023-05-14T16:44:55.061Z,23.85
2023-05-14T16:47:22.980Z,23.54
2023-05-14T16:49:50.655Z,23.48
2023-05-14T16:52:18.621Z,23.06
2023-05-14T16:54:46.429Z,22.98
2023-05-14T16:57:14.081Z,23.08
2023-05-14T16:59:41.723Z,22.71
2023-05-14T17:02:09.842Z,22.42
2023-05-14T17:04:40.936Z,22.03
2023-05-14T17:07:08.708Z,22.26
2023-05-14T17:09:36.300Z,22.22
2023-05-14T17:12:04.363Z,22.41
2023-05-14T17:14:32.068Z,22.21
2023-05-14T17:16:59.674Z,22.27
2023-05-14T17:19:27.302Z,22.28
2023-05-14T17:21:54.932Z,22.30
2023-05-14T17:24:22.585Z,22.13
2023-05-14T17:26:50.240Z,22.20
2023-05-14T17:29:17.921Z,22.13
2023-05-14T17:31:45.851Z,21.79
2023-05-14T17:34:13.677Z,21.79
2023-05-14T17:36:41.422Z,21.91
2023-05-14T17:39:09.311Z,21.76
2023-05-14T17:41:36.870Z,21.38
2023-05-14T17:44:04.681Z,21.27
2023-05-14T17:46:33.733Z,21.07
2023-05-14T17:49:01.571Z,20.82
2023-05-14T17:51:29.254Z,20.66
2023-05-14T17:53:56.905Z,20.80
2023-05-14T17:56:24.651Z,20.57
2023-05-14T17:58:52.252Z,20.71
2023-05-14T18:01:19.931Z,20.62
2023-05-14T18:03:47.749Z,20.59
2023-05-14T18:06:15.748Z,20.54
2023-05-14T18:08:43.404Z,20.44
2023-05-14T18:11:11.158Z,20.41
2023-05-14T18:13:38.873Z,20.24
2023-05-14T18:16:06.705Z,20.01
2023-05-14T18:18:34.479Z,19.88
2023-05-14T18:21:02.573Z,19.71
2023-05-14T18:23:30.287Z,19.77
2023-05-14T18:25:57.968Z,19.71
2023-05-14T18:28:26.389Z,19.68
2023-05-14T18:30:54.038Z,19.51
2023-05-14T18:33:21.209Z,19.49
2023-05-14T18:35:48.725Z,19.23
2023-05-14T18:38:17.790Z,18.97
2023-05-14T18:40:46.698Z,18.67
2023-05-14T18:43:15.055Z,18.57
2023-05-14T18:45:43.096Z,18.47
2023-05-14T18:48:10.554Z,18.52
2023-05-14T18:50:39.507Z,18.27
2023-05-14T18:53:08.447Z,17.90
2023-05-14T18:55:38.801Z,17.63
2023-05-14T18:58:05.982Z,17.61
2023-05-14T19:00:33.223Z,17.31
2023-05-14T19:03:00.899Z,17.30
2023-05-14T19:05:28.551Z,17.26
2023-05-14T19:08:02.052Z,17.36
2023-05-14T19:10:30.023Z,17.29
2023-05-14T19:12:57.691Z,17.22
2023-05-14T19:15:25.275Z,17.29
2023-05-14T19:17:54.209Z,17.24
2023-05-14T19:20:21.504Z,17.06
2023-05-14T19:22:49.356Z,17.10
2023-05-14T19:25:20.192Z,17.10
2023-05-14T19:27:51.070Z,17.12
2023-05-14T19:30:20.696Z,17.08
2023-05-14T19:32:49.271Z,17.13
2023-05-14T19:35:16.578Z,16.99
2023-05-14T19:37:44.175Z,16.98
2023-05-14T19:40:12.138Z,16.82
2023-05-14T19:42:39.610Z,16.81
2023-05-14T19:45:07.683Z,16.94
2023-05-14T19:47:35.380Z,16.77
2023-05-14T19:50:02.857Z,16.82
2023-05-14T19:52:31.888Z,16.91
2023-05-14T19:54:59.148Z,16.89
2023-05-14T19:57:26.790Z,16.90
2023-05-14T19:59:54.070Z,16.81
2023-05-14T20:02:22.268Z,16.77
2023-05-14T20:04:49.831Z,16.70
2023-05-14T20:07:17.242Z,16.62
2023-05-14T20:09:45.894Z,16.59
2023-05-14T20:12:14.368Z,16.45
2023-05-14T20:14:41.882Z,16.37
2023-05-14T20:17:09.586Z,16.39
2023-05-14T20:19:36.823Z,16.40
2023-05-14T20:22:04.483Z,16.27
2023-05-14T20:24:32.365Z,16.11
2023-05-14T20:27:00.308Z,16.12
2023-05-14T20:29:27.981Z,16.03
2023-05-14T20:31:55.518Z,16.02
2023-05-14T20:34:22.840Z,15.89
2023-05-14T20:36:53.930Z,15.86
2023-05-14T20:39:21.376Z,15.70
2023-05-14T20:41:48.764Z,15.60
2023-05-14T20:44:16.804Z,15.60
2023-05-14T20:46:45.053Z,15.37
2023-05-14T20:49:12.862Z,15.35
2023-05-14T20:51:42.356Z,15.13
2023-05-14T20:57:02.896Z,15.07
2023-05-14T20:59:38.042Z,14.90
2023-05-14T21:02:06.035Z,14.76
2023-05-14T21:04:34.550Z,14.80
2023-05-14T21:07:02.757Z,14.84
2023-05-14T21:09:29.984Z,14.86
2023-05-14T21:12:08.008Z,14.79
2023-05-14T21:14:35.569Z,14.89
2023-05-14T21:17:03.473Z,14.94
2023-05-14T21:19:30.725Z,14.87
2023-05-14T21:21:59.725Z,14.80
2023-05-14T21:24:27.505Z,14.87
2023-05-14T21:26:54.857Z,14.84
2023-05-14T21:29:22.674Z,14.77
2023-05-14T21:31:50.248Z,14.69
2023-05-14T21:34:17.459Z,14.32
2023-05-14T21:36:48.005Z,14.34
2023-05-14T21:39:15.708Z,14.46
2023-05-14T21:41:42.982Z,14.45
2023-05-14T21:44:10.172Z,14.50
2023-05-14T21:46:37.533Z,14.49
2023-05-14T21:49:05.299Z,14.36
2023-05-14T21:51:33.030Z,14.48
2023-05-14T21:54:00.208Z,14.51
2023-05-14T21:56:27.413Z,14.57
2023-05-14T21:58:56.001Z,14.59
2023-05-14T22:01:23.504Z,14.68
2023-05-14T22:03:50.699Z,14.60
2023-05-14T22:06:18.015Z,14.59
2023-05-14T22:08:45.276Z,14.72
2023-05-14T22:11:12.504Z,14.62
2023-05-14T22:13:41.102Z,14.69
2023-05-14T22:16:13.790Z,14.59
2023-05-14T22:18:41.659Z,14.66
2023-05-14T22:21:11.404Z,14.77
2023-05-14T22:23:39.316Z,14.69
2023-05-14T22:26:06.685Z,14.80
2023-05-14T22:28:33.811Z,14.90
2023-05-14T22:31:00.989Z,14.87
2023-05-14T22:33:28.276Z,14.76
2023-05-14T22:35:55.478Z,14.86
2023-05-14T22:38:22.631Z,14.87
2023-05-14T22:40:49.763Z,14.95
2023-05-14T22:43:17.071Z,14.91
2023-05-14T22:45:44.520Z,14.92
2023-05-14T22:48:11.750Z,14.76
2023-05-14T22:51:57.067Z,14.80
2023-05-14T22:55:39.532Z,14.58
2023-05-14T22:58:07.497Z,14.55
2023-05-14T23:01:50.087Z,14.51
2023-05-14T23:04:17.451Z,14.42
2023-05-14T23:06:45.040Z,14.23
2023-05-14T23:09:12.451Z,14.27
2023-05-14T23:11:39.794Z,14.31
2023-05-14T23:14:07.001Z,14.24
2023-05-14T23:16:34.107Z,14.19
2023-05-14T23:20:16.782Z,14.14
2023-05-14T23:22:44.722Z,14.01
2023-05-14T23:26:27.628Z,13.79
2023-05-14T23:29:20.479Z,13.78
2023-05-14T23:31:50.283Z,13.72
2023-05-14T23:35:33.165Z,13.61
2023-05-14T23:39:16.495Z,13.55
2023-05-14T23:41:44.425Z,13.18
2023-05-14T23:44:11.777Z,13.20
2023-05-14T23:47:56.785Z,13.01
2023-05-14T23:50:25.017Z,13.10
2023-05-14T23:52:54.234Z,13.12
2023-05-14T23:55:22.563Z,13.11
2023-05-14T23:57:50.095Z,13.10
